createdAt,value
2018-05-07T00:00:58.532Z,19.09
2018-05-07T00:01:58.343Z,19.11
2018-05-07T00:02:58.435Z,19.08
2018-05-07T00:03:58.584Z,19.06
2018-05-07T00:04:58.328Z,19.11
2018-05-07T00:05:59.640Z,19.08
2018-05-07T00:06:58.277Z,19.09
2018-05-07T00:07:58.602Z,19.11
2018-05-07T00:08:59.001Z,19.09
2018-05-07T00:09:58.701Z,19.11
2018-05-07T00:10:58.599Z,19.11
2018-05-07T00:11:58.646Z,19.08
2018-05-07T00:12:58.492Z,19.08
2018-05-07T00:13:58.359Z,19.08
2018-05-07T00:14:58.328Z,19.08
2018-05-07T00:15:58.351Z,19.09
2018-05-07T00:16:58.340Z,19.09
2018-05-07T00:17:58.587Z,19.09
2018-05-07T00:18:58.431Z,19.09
2018-05-07T00:19:58.430Z,19.08
2018-05-07T00:20:58.388Z,19.08
2018-05-07T00:21:58.436Z,19.06
2018-05-07T00:22:58.500Z,19.08
2018-05-07T00:23:58.385Z,19.08
2018-05-07T00:24:58.445Z,19.08
2018-05-07T00:25:58.386Z,19.09
2018-05-07T00:26:58.356Z,19.06
2018-05-07T00:27:58.519Z,19.09
2018-05-07T00:28:58.580Z,19.08
2018-05-07T00:29:58.459Z,19.08
2018-05-07T00:30:58.580Z,19.09
2018-05-07T00:31:58.444Z,19.08
2018-05-07T00:32:58.472Z,19.08
2018-05-07T00:33:58.360Z,19.08
2018-05-07T00:34:58.446Z,19.08
2018-05-07T00:35:58.565Z,19.08
2018-05-07T00:36:58.599Z,19.06
2018-05-07T00:37:58.481Z,19.08
2018-05-07T00:38:58.362Z,19.05
2018-05-07T00:39:58.607Z,19.08
2018-05-07T00:40:58.576Z,19.06
2018-05-07T00:41:58.516Z,19.09
2018-05-07T00:42:58.524Z,19.08
2018-05-07T00:43:58.503Z,19.08
2018-05-07T00:44:58.367Z,19.06
2018-05-07T00:45:58.461Z,19.06
2018-05-07T00:46:58.492Z,19.05
2018-05-07T00:47:58.487Z,19.05
2018-05-07T00:48:58.261Z,19.08
2018-05-07T00:49:58.498Z,19.08
2018-05-07T00:50:58.464Z,19.08
2018-05-07T00:51:58.472Z,19.06
2018-05-07T00:52:58.364Z,19.06
2018-05-07T00:53:58.384Z,19.05
2018-05-07T00:54:58.485Z,19.06
2018-05-07T00:55:58.390Z,19.08
2018-05-07T00:56:58.325Z,19.06
2018-05-07T00:57:58.426Z,19.06
2018-05-07T00:58:58.347Z,19.08
2018-05-07T00:59:58.351Z,19.05
2018-05-07T01:00:58.555Z,19.08
2018-05-07T01:01:58.377Z,19.08
2018-05-07T01:02:58.326Z,19.06
2018-05-07T01:03:58.307Z,19.05
2018-05-07T01:04:58.725Z,19.08
2018-05-07T01:05:58.496Z,19.06
2018-05-07T01:06:58.534Z,19.05
2018-05-07T01:07:58.432Z,19.06
2018-05-07T01:08:58.417Z,19.06
2018-05-07T01:09:58.400Z,19.05
2018-05-07T01:10:58.463Z,19.05
2018-05-07T01:11:58.459Z,19.05
2018-05-07T01:12:58.553Z,19.03
2018-05-07T01:13:58.381Z,19.05
2018-05-07T01:14:58.501Z,19.06
2018-05-07T01:15:58.515Z,19.06
2018-05-07T01:16:58.576Z,19.06
2018-05-07T01:17:58.362Z,19.08
2018-05-07T01:18:58.491Z,19.06
2018-05-07T01:19:58.467Z,19.05
2018-05-07T01:20:58.296Z,19.05
2018-05-07T01:21:58.388Z,19.05
2018-05-07T01:22:58.381Z,19.03
2018-05-07T01:23:58.374Z,19.03
2018-05-07T01:24:58.446Z,19.05
2018-05-07T01:25:58.439Z,19.05
2018-05-07T01:26:58.488Z,19.05
2018-05-07T01:27:58.442Z,19.06
2018-05-07T01:28:58.612Z,19.05
2018-05-07T01:29:58.443Z,19.05
2018-05-07T01:30:58.475Z,19.02
2018-05-07T01:31:58.350Z,19.03
2018-05-07T01:32:58.336Z,19.05
2018-05-07T01:33:58.455Z,19.03
2018-05-07T01:34:58.482Z,19.03
2018-05-07T01:35:58.321Z,19.06
2018-05-07T01:36:58.336Z,19.05
2018-05-07T01:37:58.462Z,19.03
2018-05-07T01:39:08.355Z,19.03
2018-05-07T01:39:58.347Z,19.03
2018-05-07T01:40:58.500Z,19.05
2018-05-07T01:41:58.420Z,19.03
2018-05-07T01:42:58.455Z,19.03
2018-05-07T01:43:58.506Z,19.05
2018-05-07T01:44:58.565Z,19.03
2018-05-07T01:45:58.483Z,19.03
2018-05-07T01:46:58.516Z,19.03
2018-05-07T01:47:58.742Z,19.02
2018-05-07T01:48:58.487Z,19.02
2018-05-07T01:49:58.578Z,19.05
2018-05-07T01:50:58.441Z,19.05
2018-05-07T01:51:58.265Z,19.05
2018-05-07T01:52:58.456Z,19.03
2018-05-07T01:53:58.529Z,19.03
2018-05-07T01:54:58.447Z,19.03
2018-05-07T01:55:58.366Z,19.03
2018-05-07T01:56:58.358Z,19.03
2018-05-07T01:57:58.393Z,19.03
2018-05-07T01:58:58.515Z,19.03
2018-05-07T01:59:58.494Z,19.02
2018-05-07T02:00:58.448Z,19.02
2018-05-07T02:01:58.444Z,19.03
2018-05-07T02:02:58.366Z,19.03
2018-05-07T02:03:58.454Z,19.05
2018-05-07T02:04:58.320Z,19.02
2018-05-07T02:05:58.300Z,19.02
2018-05-07T02:06:58.454Z,19.02
2018-05-07T02:07:58.361Z,19.02
2018-05-07T02:08:58.530Z,19.02
2018-05-07T02:09:58.322Z,19.03
2018-05-07T02:10:58.406Z,19.03
2018-05-07T02:11:58.577Z,19.03
2018-05-07T02:12:58.352Z,19.05
2018-05-07T02:13:58.449Z,19.02
2018-05-07T02:14:58.356Z,19.01
2018-05-07T02:15:58.454Z,19.02
2018-05-07T02:16:58.276Z,19.03
2018-05-07T02:17:58.462Z,19.02
2018-05-07T02:18:58.618Z,19.02
2018-05-07T02:19:58.415Z,19.02
2018-05-07T02:20:58.368Z,19.02
2018-05-07T02:21:58.506Z,19.02
2018-05-07T02:22:58.441Z,19.03
2018-05-07T02:23:58.405Z,19.01
2018-05-07T02:24:58.398Z,18.99
2018-05-07T02:25:58.483Z,19.02
2018-05-07T02:26:58.506Z,19.01
2018-05-07T02:27:58.302Z,19.02
2018-05-07T02:28:58.516Z,19.02
2018-05-07T02:29:58.285Z,19.01
2018-05-07T02:30:58.443Z,18.99
2018-05-07T02:31:58.467Z,19.02
2018-05-07T02:32:58.468Z,19.02
2018-05-07T02:33:58.335Z,19.02
2018-05-07T02:34:58.371Z,19.02
2018-05-07T02:35:58.431Z,19.02
2018-05-07T02:36:58.507Z,19.01
2018-05-07T02:37:58.374Z,19.01
2018-05-07T02:38:58.902Z,19.02
2018-05-07T02:39:58.430Z,19.01
2018-05-07T02:40:58.328Z,18.99
2018-05-07T02:41:58.388Z,19.02
2018-05-07T02:42:58.388Z,18.98
2018-05-07T02:43:58.360Z,19.01
2018-05-07T02:44:58.358Z,18.98
2018-05-07T02:45:58.361Z,19.01
2018-05-07T02:46:58.517Z,18.99
2018-05-07T02:47:58.600Z,19.01
2018-05-07T02:48:58.438Z,19.01
2018-05-07T02:49:58.399Z,18.99
2018-05-07T02:50:58.386Z,19.01
2018-05-07T02:51:58.536Z,19.02
2018-05-07T02:52:58.334Z,19.01
2018-05-07T02:53:58.257Z,19.01
2018-05-07T02:54:58.346Z,19.01
2018-05-07T02:55:58.264Z,19.01
2018-05-07T02:56:58.332Z,19.01
2018-05-07T02:57:58.455Z,19.01
2018-05-07T02:58:58.507Z,18.99
2018-05-07T02:59:58.411Z,18.99
2018-05-07T03:00:58.333Z,19.01
2018-05-07T03:01:58.384Z,19.01
2018-05-07T03:02:58.305Z,19.02
2018-05-07T03:03:58.286Z,19.01
2018-05-07T03:04:58.397Z,19.02
2018-05-07T03:05:58.293Z,18.98
2018-05-07T03:06:58.302Z,19.01
2018-05-07T03:07:58.435Z,19.02
2018-05-07T03:08:58.393Z,18.99
2018-05-07T03:09:58.336Z,19.01
2018-05-07T03:10:58.334Z,19.01
2018-05-07T03:11:58.364Z,18.98
2018-05-07T03:12:58.376Z,18.99
2018-05-07T03:13:58.305Z,18.99
2018-05-07T03:14:58.368Z,18.99
2018-05-07T03:15:58.313Z,18.98
2018-05-07T03:16:58.600Z,18.99
2018-05-07T03:17:58.400Z,18.99
2018-05-07T03:18:58.410Z,18.98
2018-05-07T03:19:58.429Z,18.99
2018-05-07T03:20:58.468Z,18.99
2018-05-07T03:21:58.369Z,19.02
2018-05-07T03:22:58.607Z,19.02
2018-05-07T03:23:58.424Z,18.99
2018-05-07T03:24:58.405Z,19.01
2018-05-07T03:25:58.288Z,19.01
2018-05-07T03:26:58.352Z,18.98
2018-05-07T03:27:58.298Z,18.99
2018-05-07T03:28:58.338Z,18.99
2018-05-07T03:29:58.277Z,18.99
2018-05-07T03:30:58.323Z,18.99
2018-05-07T03:31:58.520Z,19.01
2018-05-07T03:32:58.563Z,18.98
2018-05-07T03:33:58.335Z,19.01
2018-05-07T03:34:58.430Z,18.98
2018-05-07T03:35:58.321Z,18.99
2018-05-07T03:36:58.452Z,19.01
2018-05-07T03:37:58.391Z,18.99
2018-05-07T03:38:58.453Z,18.99
2018-05-07T03:40:58.336Z,18.99
2018-05-07T03:41:58.355Z,18.99
2018-05-07T03:42:58.441Z,19.01
2018-05-07T03:43:58.384Z,18.99
2018-05-07T03:44:58.397Z,18.97
2018-05-07T06:01:42.306Z,18.97
2018-05-07T06:02:42.673Z,18.98
2018-05-07T06:03:43.212Z,18.97
2018-05-07T06:04:42.568Z,18.98
2018-05-07T06:05:42.205Z,18.99
2018-05-07T06:06:42.317Z,18.99
2018-05-07T06:07:42.386Z,18.98
2018-05-07T06:08:42.367Z,18.98
2018-05-07T06:09:42.380Z,18.98
2018-05-07T06:10:42.298Z,18.98
2018-05-07T06:11:42.434Z,18.98
2018-05-07T06:12:42.164Z,18.98
2018-05-07T06:13:42.278Z,18.97
2018-05-07T06:14:43.541Z,18.99
2018-05-07T06:15:42.260Z,18.98
2018-05-07T06:16:42.562Z,18.98
2018-05-07T06:17:42.123Z,18.99
2018-05-07T06:18:42.268Z,18.95
2018-05-07T06:19:42.469Z,18.97
2018-05-07T06:20:42.289Z,18.98
2018-05-07T06:21:42.265Z,18.98
2018-05-07T06:22:42.246Z,18.97
2018-05-07T06:23:42.130Z,18.99
2018-05-07T06:24:42.254Z,18.98
2018-05-07T06:25:42.342Z,18.97
2018-05-07T06:26:42.283Z,19.01
2018-05-07T06:27:42.134Z,18.97
2018-05-07T06:28:42.403Z,18.98
2018-05-07T06:29:42.154Z,18.99
2018-05-07T06:30:42.208Z,19.01
2018-05-07T06:31:42.385Z,18.97
2018-05-07T06:32:42.283Z,18.99
2018-05-07T06:33:42.377Z,18.97
2018-05-07T06:34:42.175Z,18.98
2018-05-07T06:35:42.372Z,18.98
2018-05-07T06:36:42.297Z,18.99
2018-05-07T06:37:42.219Z,18.98
2018-05-07T06:38:42.458Z,18.99
2018-05-07T06:39:42.394Z,18.99
2018-05-07T06:40:42.275Z,18.98
2018-05-07T06:41:42.331Z,18.99
2018-05-07T06:42:42.364Z,18.97
2018-05-07T06:43:42.495Z,18.99
2018-05-07T06:44:42.186Z,18.99
2018-05-07T06:45:42.505Z,18.95
2018-05-07T06:46:42.462Z,18.99
2018-05-07T06:47:42.304Z,18.97
2018-05-07T06:48:42.416Z,18.98
2018-05-07T06:49:42.289Z,18.97
2018-05-07T06:50:42.218Z,18.98
2018-05-07T06:51:42.370Z,18.99
2018-05-07T06:52:42.502Z,18.98
2018-05-07T06:53:43.534Z,18.98
2018-05-07T06:54:42.431Z,18.99
2018-05-07T06:55:42.299Z,18.97
2018-05-07T06:56:42.231Z,18.99
2018-05-07T06:57:42.283Z,18.98
2018-05-07T06:58:42.346Z,18.94
2018-05-07T06:59:42.291Z,18.97
2018-05-07T07:00:42.220Z,18.97
2018-05-07T07:01:42.319Z,18.97
2018-05-07T07:02:43.962Z,18.98
2018-05-07T07:03:42.378Z,18.98
2018-05-07T07:04:42.311Z,18.97
2018-05-07T07:05:42.361Z,18.97
2018-05-07T07:06:42.338Z,18.98
2018-05-07T07:07:42.116Z,18.99
2018-05-07T07:08:42.929Z,18.99
2018-05-07T07:09:42.302Z,18.95
2018-05-07T07:10:42.285Z,18.99
2018-05-07T07:11:42.210Z,18.97
2018-05-07T07:12:42.263Z,18.97
2018-05-07T07:13:42.291Z,18.98
2018-05-07T07:14:42.265Z,18.99
2018-05-07T07:15:42.238Z,18.99
2018-05-07T07:16:42.313Z,18.97
2018-05-07T07:17:42.362Z,19.01
2018-05-07T07:18:42.095Z,18.98
2018-05-07T07:19:42.148Z,18.97
2018-05-07T07:20:42.211Z,18.99
2018-05-07T07:21:42.576Z,18.97
2018-05-07T07:22:42.192Z,18.97
2018-05-07T07:23:42.296Z,18.99
2018-05-07T07:24:42.354Z,18.95
2018-05-07T07:25:42.157Z,18.95
2018-05-07T07:26:42.388Z,19.01
2018-05-07T07:27:42.260Z,18.95
2018-05-07T07:28:42.166Z,18.98
2018-05-07T07:29:52.140Z,18.98
2018-05-07T07:30:42.140Z,18.97
2018-05-07T07:31:42.335Z,18.97
2018-05-07T07:32:42.299Z,18.97
2018-05-07T07:33:42.946Z,18.98
2018-05-07T07:34:42.182Z,18.97
2018-05-07T07:35:42.124Z,18.98
2018-05-07T07:36:42.276Z,18.97
2018-05-07T07:37:42.287Z,18.95
2018-05-07T07:38:42.699Z,18.97
2018-05-07T07:39:42.528Z,18.97
2018-05-07T07:40:42.342Z,18.97
2018-05-07T07:41:42.364Z,18.98
2018-05-07T07:42:42.284Z,18.95
2018-05-07T07:43:42.273Z,18.97
2018-05-07T07:44:42.294Z,18.99
2018-05-07T07:45:42.197Z,18.98
2018-05-07T07:46:42.093Z,18.95
2018-05-07T07:47:42.503Z,18.97
2018-05-07T07:48:42.280Z,18.97
2018-05-07T07:49:42.382Z,18.95
2018-05-07T07:50:42.370Z,18.98
2018-05-07T07:51:42.476Z,18.97
2018-05-07T07:52:42.258Z,18.95
2018-05-07T07:53:42.801Z,18.97
2018-05-07T07:54:42.302Z,18.97
2018-05-07T07:55:42.146Z,18.97
2018-05-07T07:56:42.289Z,18.99
2018-05-07T07:57:42.078Z,18.99
2018-05-07T07:58:42.264Z,18.97
2018-05-07T07:59:42.239Z,18.95
2018-05-07T08:00:42.297Z,18.95
2018-05-07T08:01:42.944Z,18.95
2018-05-07T08:02:42.229Z,18.98
2018-05-07T08:03:42.264Z,18.97
2018-05-07T08:04:42.342Z,18.97
2018-05-07T08:05:42.193Z,18.98
2018-05-07T08:06:42.281Z,18.95
2018-05-07T08:07:42.411Z,18.97
2018-05-07T08:08:42.148Z,18.95
2018-05-07T08:09:42.200Z,18.97
2018-05-07T08:10:42.253Z,18.97
2018-05-07T08:11:42.330Z,18.97
2018-05-07T08:12:42.293Z,18.94
2018-05-07T08:13:42.327Z,18.97
2018-05-07T08:14:42.306Z,18.95
2018-05-07T08:15:42.239Z,18.95
2018-05-07T08:16:42.123Z,18.95
2018-05-07T08:17:42.209Z,18.97
2018-05-07T08:18:42.284Z,18.94
2018-05-07T08:19:42.157Z,18.97
2018-05-07T08:20:42.165Z,18.95
2018-05-07T08:21:42.173Z,18.97
2018-05-07T08:22:42.279Z,18.95
2018-05-07T08:23:42.206Z,18.97
2018-05-07T08:24:42.617Z,18.97
2018-05-07T08:25:42.322Z,18.95
2018-05-07T08:26:42.214Z,18.95
2018-05-07T08:27:42.350Z,18.95
2018-05-07T08:28:42.434Z,18.95
2018-05-07T08:29:42.201Z,18.97
2018-05-07T08:30:42.096Z,18.97
2018-05-07T08:31:42.167Z,18.94
2018-05-07T08:32:42.262Z,18.97
2018-05-07T08:33:42.282Z,18.97
2018-05-07T08:34:42.226Z,18.97
2018-05-07T08:35:42.352Z,18.98
2018-05-07T08:36:42.939Z,18.95
2018-05-07T08:37:42.203Z,18.95
2018-05-07T08:38:42.166Z,18.98
2018-05-07T08:39:42.335Z,18.95
2018-05-07T08:40:42.266Z,18.95
2018-05-07T08:41:42.157Z,18.95
2018-05-07T08:42:42.173Z,18.95
2018-05-07T08:43:42.325Z,18.97
2018-05-07T08:44:42.228Z,18.97
2018-05-07T08:45:42.212Z,18.92
2018-05-07T08:46:42.235Z,18.97
2018-05-07T08:47:42.248Z,18.95
2018-05-07T08:48:42.234Z,18.95
2018-05-07T08:49:42.125Z,18.94
2018-05-07T08:50:42.090Z,18.98
2018-05-07T08:51:42.405Z,18.98
2018-05-07T08:52:42.607Z,18.94
2018-05-07T08:53:42.329Z,18.94
2018-05-07T08:54:42.194Z,18.94
2018-05-07T08:55:42.307Z,18.95
2018-05-07T08:56:42.132Z,18.95
2018-05-07T08:57:42.431Z,18.95
2018-05-07T08:58:42.279Z,18.94
2018-05-07T08:59:42.254Z,18.97
2018-05-07T09:00:42.200Z,18.97
2018-05-07T09:01:42.096Z,18.95
2018-05-07T09:02:42.305Z,18.94
2018-05-07T09:03:42.095Z,18.95
2018-05-07T09:04:42.090Z,18.94
2018-05-07T09:05:42.097Z,18.94
2018-05-07T09:06:42.100Z,18.94
2018-05-07T09:07:42.318Z,18.94
2018-05-07T09:08:42.337Z,18.94
2018-05-07T09:09:42.193Z,18.97
2018-05-07T09:10:42.337Z,18.92
2018-05-07T09:11:42.298Z,18.95
2018-05-07T09:12:42.364Z,18.97
2018-05-07T09:13:43.126Z,18.92
2018-05-07T09:14:42.108Z,18.95
2018-05-07T09:15:42.282Z,18.97
2018-05-07T09:16:42.304Z,18.92
2018-05-07T09:17:42.157Z,18.95
2018-05-07T09:18:42.336Z,18.95
2018-05-07T09:19:42.271Z,18.97
2018-05-07T09:20:42.334Z,18.97
2018-05-07T09:21:42.175Z,18.95
2018-05-07T09:22:42.355Z,18.95
2018-05-07T09:23:42.329Z,18.97
2018-05-07T09:24:42.832Z,18.97
2018-05-07T09:25:52.141Z,18.95
2018-05-07T09:26:42.283Z,18.97
2018-05-07T09:27:42.105Z,18.94
2018-05-07T09:28:42.358Z,18.94
2018-05-07T09:29:42.125Z,18.98
2018-05-07T09:30:42.051Z,18.94
2018-05-07T09:31:42.121Z,18.94
2018-05-07T09:32:42.101Z,18.94
2018-05-07T09:33:42.167Z,18.95
2018-05-07T09:34:42.228Z,18.97
2018-05-07T09:35:42.262Z,18.97
2018-05-07T09:36:42.186Z,18.97
2018-05-07T09:37:42.159Z,18.94
2018-05-07T09:38:42.341Z,18.94
2018-05-07T09:39:42.181Z,18.95
2018-05-07T09:40:42.256Z,18.95
2018-05-07T09:41:42.101Z,18.92
2018-05-07T09:42:42.071Z,18.95
2018-05-07T09:43:42.298Z,18.95
2018-05-07T09:44:42.381Z,18.98
2018-05-07T09:45:42.251Z,18.95
2018-05-07T09:46:42.126Z,18.94
2018-05-07T09:47:42.319Z,18.97
2018-05-07T09:48:42.281Z,18.95
2018-05-07T09:49:42.321Z,18.97
2018-05-07T09:50:42.171Z,18.94
2018-05-07T09:51:42.140Z,18.94
2018-05-07T09:52:42.348Z,18.94
2018-05-07T09:53:42.220Z,18.94
2018-05-07T09:54:42.119Z,18.94
2018-05-07T09:55:42.618Z,18.95
2018-05-07T09:56:42.450Z,18.94
2018-05-07T09:57:42.190Z,18.94
2018-05-07T09:58:42.140Z,18.95
2018-05-07T09:59:42.250Z,18.94
2018-05-07T10:00:42.109Z,18.97
2018-05-07T10:01:42.196Z,18.95
2018-05-07T10:02:42.203Z,18.95
2018-05-07T10:03:42.197Z,18.94
2018-05-07T10:04:42.145Z,18.94
2018-05-07T10:05:42.447Z,18.95
2018-05-07T10:06:42.186Z,18.94
2018-05-07T10:07:42.090Z,18.92
2018-05-07T10:08:42.187Z,18.97
2018-05-07T10:09:42.224Z,18.95
2018-05-07T10:10:42.334Z,18.95
2018-05-07T10:11:42.189Z,18.97
2018-05-07T10:12:42.089Z,18.95
2018-05-07T10:13:42.163Z,18.94
2018-05-07T10:14:42.129Z,18.97
2018-05-07T10:15:42.020Z,18.95
2018-05-07T10:16:42.275Z,18.95
2018-05-07T10:17:42.333Z,18.95
2018-05-07T10:18:42.131Z,18.95
2018-05-07T10:19:42.354Z,18.95
2018-05-07T10:20:42.224Z,18.94
2018-05-07T10:21:42.157Z,18.92
2018-05-07T10:22:42.150Z,18.94
2018-05-07T10:23:42.275Z,18.97
2018-05-07T10:24:42.292Z,18.92
2018-05-07T10:25:42.115Z,18.95
2018-05-07T10:26:42.041Z,18.94
2018-05-07T10:27:42.114Z,18.92
2018-05-07T10:28:42.170Z,18.94
2018-05-07T10:29:42.428Z,18.95
2018-05-07T10:30:42.264Z,18.94
2018-05-07T10:31:42.122Z,18.94
2018-05-07T10:32:42.263Z,18.95
2018-05-07T10:33:42.186Z,18.92
2018-05-07T10:34:42.118Z,18.94
2018-05-07T10:35:42.287Z,18.97
2018-05-07T10:36:42.267Z,18.94
2018-05-07T10:37:42.081Z,18.92
2018-05-07T10:38:42.162Z,18.94
2018-05-07T10:39:42.250Z,18.95
2018-05-07T10:40:42.290Z,18.95
2018-05-07T10:41:42.103Z,18.95
2018-05-07T10:42:42.368Z,18.92
2018-05-07T10:43:42.246Z,18.94
2018-05-07T10:44:42.267Z,18.95
2018-05-07T10:45:42.173Z,18.94
2018-05-07T10:46:42.198Z,18.94
2018-05-07T10:47:42.172Z,18.94
2018-05-07T10:48:42.169Z,18.94
2018-05-07T10:49:42.081Z,18.94
2018-05-07T10:50:42.204Z,18.94
2018-05-07T10:51:42.145Z,18.94
2018-05-07T10:52:42.156Z,18.94
2018-05-07T10:53:42.117Z,18.94
2018-05-07T10:54:42.157Z,18.94
2018-05-07T10:55:42.028Z,18.94
2018-05-07T10:56:42.347Z,18.95
2018-05-07T10:57:42.505Z,18.92
2018-05-07T10:58:42.087Z,18.95
2018-05-07T10:59:42.092Z,18.95
2018-05-07T11:00:42.215Z,18.95
2018-05-07T11:01:43.076Z,18.94
2018-05-07T11:02:42.178Z,18.94
2018-05-07T11:03:42.015Z,18.94
2018-05-07T11:04:42.162Z,18.94
2018-05-07T11:05:42.152Z,18.95
2018-05-07T11:06:42.016Z,18.92
2018-05-07T11:07:42.356Z,18.91
2018-05-07T11:08:42.307Z,18.94
2018-05-07T11:09:42.248Z,18.92
2018-05-07T11:11:13.083Z,18.92
2018-05-07T11:11:42.232Z,18.95
2018-05-07T11:12:42.149Z,18.95
2018-05-07T11:13:42.026Z,18.92
2018-05-07T11:14:42.184Z,18.94
2018-05-07T11:15:42.061Z,18.94
2018-05-07T11:16:42.114Z,18.95
2018-05-07T11:17:42.221Z,18.94
2018-05-07T11:18:42.230Z,18.92
2018-05-07T11:19:42.671Z,18.92
2018-05-07T11:20:42.120Z,18.97
2018-05-07T11:21:42.141Z,18.94
2018-05-07T11:22:42.140Z,18.95
2018-05-07T11:23:42.296Z,18.94
2018-05-07T11:24:42.244Z,18.94
2018-05-07T11:25:42.298Z,18.92
2018-05-07T11:26:42.120Z,18.94
2018-05-07T11:27:42.432Z,18.94
2018-05-07T11:28:42.309Z,18.94
2018-05-07T11:29:42.186Z,18.95
2018-05-07T11:30:42.278Z,18.92
2018-05-07T11:31:42.358Z,18.95
2018-05-07T11:32:42.231Z,18.97
2018-05-07T11:33:42.130Z,18.95
2018-05-07T11:34:42.289Z,18.94
2018-05-07T11:35:42.208Z,18.95
2018-05-07T11:36:42.116Z,18.94
2018-05-07T11:37:42.344Z,18.91
2018-05-07T11:38:42.118Z,18.97
2018-05-07T11:39:42.194Z,18.91
2018-05-07T11:40:42.129Z,18.92
2018-05-07T11:41:42.118Z,18.94
2018-05-07T11:42:42.241Z,18.94
2018-05-07T11:43:42.173Z,18.94
2018-05-07T11:44:42.091Z,18.98
2018-05-07T11:45:42.117Z,18.99
2018-05-07T11:46:42.159Z,19.01
2018-05-07T11:47:42.829Z,19.05
2018-05-07T11:48:42.084Z,19.02
2018-05-07T11:49:42.008Z,19.05
2018-05-07T11:50:42.200Z,19.03
2018-05-07T11:51:42.110Z,19.01
2018-05-07T11:52:42.309Z,19.05
2018-05-07T11:53:42.142Z,19.03
2018-05-07T11:54:42.221Z,19.01
2018-05-07T11:55:42.086Z,19.03
2018-05-07T11:56:42.112Z,19.06
2018-05-07T11:57:42.228Z,19.08
2018-05-07T11:58:42.216Z,19.08
2018-05-07T11:59:42.133Z,19.09
2018-05-07T12:00:42.175Z,19.09
2018-05-07T12:01:42.188Z,19.13
2018-05-07T12:02:42.612Z,19.15
2018-05-07T12:03:42.166Z,19.15
2018-05-07T12:04:42.100Z,19.16
2018-05-07T12:05:42.284Z,19.16
2018-05-07T12:06:42.103Z,19.16
2018-05-07T12:07:42.065Z,19.19
2018-05-07T12:08:42.220Z,19.19
2018-05-07T12:09:42.111Z,19.2
2018-05-07T12:10:42.123Z,19.2
2018-05-07T12:11:42.251Z,19.23
2018-05-07T12:12:42.081Z,19.22
2018-05-07T12:13:42.151Z,19.16
2018-05-07T12:14:42.063Z,19.18
2018-05-07T12:15:42.733Z,19.16
2018-05-07T12:16:42.183Z,19.12
2018-05-07T12:17:42.124Z,19.12
2018-05-07T12:18:42.128Z,19.11
2018-05-07T12:19:42.166Z,19.09
2018-05-07T12:20:42.146Z,19.11
2018-05-07T12:21:42.134Z,19.09
2018-05-07T12:22:42.203Z,19.11
2018-05-07T12:23:42.158Z,19.09
2018-05-07T12:24:42.297Z,19.08
2018-05-07T12:25:42.067Z,19.11
2018-05-07T12:26:42.153Z,19.11
2018-05-07T12:27:42.218Z,19.08
2018-05-07T12:28:42.134Z,19.08
2018-05-07T12:29:42.178Z,19.08
2018-05-07T12:30:42.232Z,19.09
2018-05-07T12:31:43.776Z,19.09
2018-05-07T12:32:41.981Z,19.09
2018-05-07T12:33:42.119Z,19.08
2018-05-07T12:34:42.097Z,19.06
2018-05-07T12:35:42.358Z,19.09
2018-05-07T12:36:42.032Z,19.09
2018-05-07T12:37:42.679Z,19.09
2018-05-07T12:38:42.128Z,19.08
2018-05-07T12:39:42.086Z,19.06
2018-05-07T12:40:42.150Z,19.08
2018-05-07T12:41:42.259Z,19.08
2018-05-07T12:42:42.212Z,19.06
2018-05-07T12:43:42.239Z,19.06
2018-05-07T12:44:42.124Z,19.06
2018-05-07T12:45:42.120Z,19.06
2018-05-07T12:46:42.702Z,19.05
2018-05-07T12:47:42.049Z,19.05
2018-05-07T12:48:42.218Z,19.05
2018-05-07T12:49:42.147Z,19.05
2018-05-07T12:50:42.098Z,19.08
2018-05-07T12:51:42.169Z,19.06
2018-05-07T12:52:42.704Z,19.06
2018-05-07T12:53:42.251Z,19.08
2018-05-07T12:54:42.149Z,19.09
2018-05-07T12:55:42.039Z,19.05
2018-05-07T12:56:42.095Z,19.03
2018-05-07T12:57:42.121Z,19.05
2018-05-07T12:58:42.052Z,19.06
2018-05-07T12:59:42.015Z,19.06
2018-05-07T13:00:42.169Z,19.05
2018-05-07T13:01:42.115Z,19.05
2018-05-07T13:02:42.104Z,19.06
2018-05-07T13:03:42.121Z,19.05
2018-05-07T13:04:42.238Z,19.06
2018-05-07T13:05:42.203Z,19.05
2018-05-07T13:06:42.013Z,19.03
2018-05-07T13:07:42.190Z,19.03
2018-05-07T13:08:42.210Z,19.05
2018-05-07T13:09:41.973Z,19.05
2018-05-07T13:10:42.243Z,19.03
2018-05-07T13:11:42.155Z,19.05
2018-05-07T13:12:42.229Z,19.06
2018-05-07T13:13:42.138Z,19.03
2018-05-07T13:14:42.174Z,19.03
2018-05-07T13:15:42.307Z,19.05
2018-05-07T13:16:42.105Z,19.05
2018-05-07T13:17:42.188Z,19.03
2018-05-07T13:18:42.331Z,19.03
2018-05-07T13:19:42.038Z,19.02
2018-05-07T13:20:42.266Z,19.03
2018-05-07T13:21:42.143Z,19.02
2018-05-07T13:22:42.140Z,19.03
2018-05-07T13:23:42.008Z,19.05
2018-05-07T13:24:42.213Z,19.01
2018-05-07T13:25:42.147Z,19.01
2018-05-07T13:26:42.130Z,19.03
2018-05-07T13:27:42.029Z,19.02
2018-05-07T13:28:42.145Z,19.01
2018-05-07T13:29:42.046Z,19.05
2018-05-07T13:30:42.199Z,19.05
2018-05-07T13:31:42.212Z,19.02
2018-05-07T13:32:42.066Z,19.02
2018-05-07T13:33:42.099Z,19.02
2018-05-07T13:34:42.176Z,19.03
2018-05-07T13:35:42.105Z,19.03
2018-05-07T13:36:42.629Z,19.02
2018-05-07T13:37:42.127Z,19.02
2018-05-07T13:38:42.086Z,19.01
2018-05-07T13:39:42.279Z,19.02
2018-05-07T13:40:42.578Z,19.03
2018-05-07T13:41:42.115Z,19.03
2018-05-07T13:42:42.160Z,19.01
2018-05-07T13:43:42.379Z,19.02
2018-05-07T13:44:42.090Z,19.05
2018-05-07T13:45:42.390Z,19.01
2018-05-07T13:46:42.117Z,19.03
2018-05-07T13:47:42.270Z,19.03
2018-05-07T13:48:42.095Z,19.05
2018-05-07T13:49:42.001Z,19.02
2018-05-07T13:50:42.324Z,19.03
2018-05-07T13:51:42.106Z,19.05
2018-05-07T13:52:42.309Z,19.02
2018-05-07T13:53:42.028Z,19.02
2018-05-07T13:54:42.290Z,19.03
2018-05-07T13:55:42.279Z,19.02
2018-05-07T13:56:42.287Z,19.03
2018-05-07T13:57:42.208Z,19.02
2018-05-07T13:58:42.256Z,19.05
2018-05-07T13:59:42.186Z,19.05
2018-05-07T14:00:42.278Z,19.02
2018-05-07T14:01:42.266Z,19.02
2018-05-07T14:02:42.760Z,19.03
2018-05-07T14:03:42.156Z,19.05
2018-05-07T14:04:42.119Z,19.03
2018-05-07T14:05:42.185Z,19.03
2018-05-07T14:06:42.292Z,19.05
2018-05-07T14:07:42.225Z,19.02
2018-05-07T14:08:42.102Z,19.03
2018-05-07T14:09:42.168Z,19.03
2018-05-07T14:10:42.151Z,19.02
2018-05-07T14:11:42.244Z,19.02
2018-05-07T14:12:42.245Z,19.03
2018-05-07T14:13:42.073Z,19.02
2018-05-07T14:14:42.320Z,19.03
2018-05-07T14:15:52.162Z,19.03
2018-05-07T14:16:42.717Z,19.02
2018-05-07T14:17:42.299Z,19.05
2018-05-07T14:18:42.159Z,19.02
2018-05-07T14:19:42.182Z,19.01
2018-05-07T14:20:42.109Z,19.02
2018-05-07T14:21:42.102Z,19.03
2018-05-07T14:22:42.231Z,19.01
2018-05-07T14:23:41.889Z,19.03
2018-05-07T14:24:42.213Z,19.01
2018-05-07T14:25:42.547Z,19.02
2018-05-07T14:26:42.098Z,19.05
2018-05-07T14:27:42.348Z,19.03
2018-05-07T14:28:42.138Z,19.02
2018-05-07T14:29:42.355Z,19.05
2018-05-07T14:30:42.060Z,19.01
2018-05-07T14:31:42.239Z,19.03
2018-05-07T14:32:42.093Z,19.03
2018-05-07T14:33:42.152Z,19.02
2018-05-07T14:34:42.420Z,19.02
2018-05-07T14:35:42.160Z,19.03
2018-05-07T14:36:42.041Z,19.03
2018-05-07T14:37:42.204Z,19.03
2018-05-07T14:38:42.558Z,19.03
2018-05-07T14:39:42.021Z,19.03
2018-05-07T14:40:42.052Z,19.05
2018-05-07T14:41:42.083Z,19.03
2018-05-07T14:42:42.167Z,19.02
2018-05-07T14:43:42.018Z,19.02
2018-05-07T14:44:42.108Z,19.03
2018-05-07T14:45:42.043Z,19.02
2018-05-07T14:46:42.209Z,19.02
2018-05-07T14:47:42.209Z,19.03
2018-05-07T14:48:42.153Z,19.02
2018-05-07T14:49:42.024Z,19.01
2018-05-07T14:50:42.307Z,19.03
2018-05-07T14:51:42.234Z,19.02
2018-05-07T14:52:42.277Z,19.03
2018-05-07T14:53:42.046Z,19.03
2018-05-07T14:54:42.096Z,19.02
2018-05-07T14:55:42.495Z,19.05
2018-05-07T14:56:42.201Z,19.05
2018-05-07T14:57:42.138Z,19.03
2018-05-07T14:58:42.836Z,19.03
2018-05-07T14:59:42.043Z,19.05
2018-05-07T15:00:41.954Z,19.02
2018-05-07T15:01:42.186Z,19.03
2018-05-07T15:02:42.275Z,19.03
2018-05-07T15:03:42.029Z,19.03
2018-05-07T15:04:42.128Z,19.03
2018-05-07T15:05:41.958Z,19.03
2018-05-07T15:06:42.106Z,19.03
2018-05-07T15:07:42.092Z,19.02
2018-05-07T15:08:42.061Z,19.05
2018-05-07T15:09:42.201Z,19.02